createdAt,value
2018-09-12T00:01:20.875Z,100910.42
2018-09-12T00:03:49.830Z,100911.61
2018-09-12T00:06:18.850Z,100907.30
2018-09-12T00:08:47.843Z,100913.31
2018-09-12T00:11:16.934Z,100914.61
2018-09-12T00:13:45.963Z,100915.27
2018-09-12T00:16:15.073Z,100917.34
2018-09-12T00:18:44.063Z,100912.19
2018-09-12T00:21:13.124Z,100907.34
2018-09-12T00:23:42.142Z,100905.21
2018-09-12T00:26:11.197Z,100906.92
2018-09-12T00:28:40.089Z,100907.94
2018-09-12T00:31:09.132Z,100907.91
2018-09-12T00:33:38.111Z,100902.67
2018-09-12T00:36:07.057Z,100899.95
2018-09-12T00:38:36.121Z,100904.82
2018-09-12T00:41:05.198Z,100899.53
2018-09-12T00:43:34.121Z,100898.32
2018-09-12T00:46:03.161Z,100893.91
2018-09-12T00:48:32.174Z,100890.25
2018-09-12T00:51:01.193Z,100885.53
2018-09-12T00:53:30.126Z,100884.69
2018-09-12T00:55:59.105Z,100878.79
2018-09-12T00:58:28.058Z,100880.01
2018-09-12T01:00:57.102Z,100880.48
2018-09-12T01:03:26.026Z,100888.89
2018-09-12T01:05:55.002Z,100884.18
2018-09-12T01:08:23.953Z,100883.48
2018-09-12T01:10:52.937Z,100883.16
2018-09-12T01:13:21.870Z,100876.09
2018-09-12T01:15:50.877Z,100869.50
2018-09-12T01:18:20.849Z,100867.66
2018-09-12T01:20:51.422Z,100873.40
2018-09-12T01:23:21.365Z,100863.91
2018-09-12T01:25:50.388Z,100868.34
2018-09-12T01:28:19.410Z,100864.59
2018-09-12T01:30:48.454Z,100869.67
2018-09-12T01:33:17.377Z,100860.23
2018-09-12T01:35:46.346Z,100872.39
2018-09-12T01:38:15.326Z,100866.69
2018-09-12T01:40:44.350Z,100869.38
2018-09-12T01:43:13.294Z,100867.36
2018-09-12T01:45:42.321Z,100870.70
2018-09-12T01:48:11.227Z,100866.81
2018-09-12T01:50:40.349Z,100862.28
2018-09-12T01:53:09.266Z,100863.14
2018-09-12T01:55:38.267Z,100857.93
2018-09-12T01:58:07.377Z,100860.62
2018-09-12T02:00:39.438Z,100857.93
2018-09-12T02:03:08.662Z,100859.63
2018-09-12T02:05:38.329Z,100856.57
2018-09-12T02:08:07.598Z,100860.97
2018-09-12T02:10:36.584Z,100862.12
2018-09-12T02:13:05.554Z,100861.95
2018-09-12T02:15:34.488Z,100855.56
2018-09-12T02:18:03.476Z,100857.92
2018-09-12T02:20:32.425Z,100858.94
2018-09-12T02:23:01.378Z,100852.86
2018-09-12T02:25:30.349Z,100852.18
2018-09-12T02:27:59.307Z,100853.80
2018-09-12T02:30:28.212Z,100849.09
2018-09-12T02:32:57.191Z,100844.06
2018-09-12T02:35:26.120Z,100847.20
2018-09-12T02:37:55.125Z,100844.39
2018-09-12T02:40:24.072Z,100839.52
2018-09-12T02:42:53.014Z,100844.68
2018-09-12T02:45:21.981Z,100848.61
2018-09-12T02:47:51.008Z,100845.79
2018-09-12T02:50:19.922Z,100837.53
2018-09-12T02:52:48.930Z,100841.51
2018-09-12T02:55:17.888Z,100838.95
2018-09-12T02:57:46.977Z,100837.95
2018-09-12T03:00:15.936Z,100835.11
2018-09-12T03:02:44.939Z,100834.91
2018-09-12T03:05:13.949Z,100832.05
2018-09-12T03:07:43.001Z,100829.53
2018-09-12T03:10:12.067Z,100824.02
2018-09-12T03:12:41.002Z,100820.75
2018-09-12T03:15:09.966Z,100816.87
2018-09-12T03:17:39.101Z,100813.47
2018-09-12T03:20:08.016Z,100810.61
2018-09-12T03:22:37.046Z,100805.12
2018-09-12T03:25:06.002Z,100813.36
2018-09-12T03:27:35.052Z,100803.78
2018-09-12T03:30:04.066Z,100814.43
2018-09-12T03:32:33.129Z,100808.38
2018-09-12T03:35:02.016Z,100817.65
2018-09-12T03:37:31.054Z,100819.27
2018-09-12T03:40:00.041Z,100838.73
2018-09-12T03:42:29.026Z,100826.94
2018-09-12T03:44:58.118Z,100828.72
2018-09-12T03:47:27.141Z,100828.91
2018-09-12T03:49:56.089Z,100827.48
2018-09-12T03:52:25.142Z,100824.88
2018-09-12T03:54:54.041Z,100829.98
2018-09-12T03:57:23.014Z,100836.44
2018-09-12T03:59:52.026Z,100832.77
2018-09-12T04:02:21.110Z,100823.86
2018-09-12T04:04:50.080Z,100825.52
2018-09-12T04:07:19.271Z,100818.88
2018-09-12T04:09:48.293Z,100821.69
2018-09-12T04:12:17.257Z,100817.53
2018-09-12T04:14:46.246Z,100822.86
2018-09-12T04:17:15.282Z,100819.27
2018-09-12T04:19:44.236Z,100820.09
2018-09-12T04:22:13.190Z,100816.14
2018-09-12T04:24:42.180Z,100816.10
2018-09-12T04:27:11.330Z,100825.12
2018-09-12T04:29:40.393Z,100823.84
2018-09-12T04:32:09.454Z,100820.56
2018-09-12T04:34:38.421Z,100821.66
2018-09-12T04:37:07.561Z,100819.48
2018-09-12T04:39:36.601Z,100820.13
2018-09-12T04:42:05.798Z,100819.13
2018-09-12T04:44:34.771Z,100820.81
2018-09-12T04:47:03.929Z,100823.40
2018-09-12T04:49:32.913Z,100822.16
2018-09-12T04:52:01.930Z,100814.59
2018-09-12T04:54:30.901Z,100818.58
2018-09-12T04:56:59.865Z,100811.52
2018-09-12T04:59:28.910Z,100814.08
2018-09-12T05:01:57.927Z,100818.41
2018-09-12T05:04:26.978Z,100818.23
2018-09-12T05:06:55.977Z,100814.56
2018-09-12T05:09:24.947Z,100812.42
2018-09-12T05:11:53.949Z,100812.59
2018-09-12T05:14:22.979Z,100809.27
2018-09-12T05:16:52.132Z,100813.11
2018-09-12T05:19:21.175Z,100807.61
2018-09-12T05:21:50.205Z,100814.59
2018-09-12T05:24:19.277Z,100815.03
2018-09-12T05:26:48.329Z,100809.39
2018-09-12T05:29:17.308Z,100814.70
2018-09-12T05:31:46.414Z,100812.89
2018-09-12T05:34:15.402Z,100814.51
2018-09-12T05:36:44.377Z,100810.34
2018-09-12T05:39:13.380Z,100805.46
2018-09-12T05:41:42.377Z,100799.23
2018-09-12T05:44:11.357Z,100805.20
2018-09-12T05:46:40.352Z,100807.61
2018-09-12T05:49:09.278Z,100814.61
2018-09-12T05:51:38.346Z,100814.07
2018-09-12T05:54:07.386Z,100814.16
2018-09-12T05:56:36.533Z,100816.09
2018-09-12T05:59:05.713Z,100817.88
2018-09-12T06:01:34.718Z,100816.89
2018-09-12T06:04:03.740Z,100815.73
2018-09-12T06:06:32.771Z,100813.88
2018-09-12T06:09:01.691Z,100811.56
2018-09-12T06:11:30.671Z,100811.95
2018-09-12T06:13:59.680Z,100810.70
2018-09-12T06:16:29.448Z,100814.31
2018-09-12T06:18:58.560Z,100813.59
2018-09-12T06:21:27.857Z,100808.96
2018-09-12T06:23:56.787Z,100821.70
2018-09-12T06:26:25.761Z,100822.12
2018-09-12T06:28:54.766Z,100825.88
2018-09-12T06:31:23.659Z,100819.50
2018-09-12T06:33:52.620Z,100822.19
2018-09-12T06:36:21.677Z,100825.52
2018-09-12T06:38:50.602Z,100821.41
2018-09-12T06:41:19.577Z,100814.88
2018-09-12T06:43:48.589Z,100819.08
2018-09-12T06:46:17.527Z,100819.08
2018-09-12T06:48:46.698Z,100819.42
2018-09-12T06:51:15.761Z,100824.22
2018-09-12T06:53:44.859Z,100820.27
2018-09-12T06:56:14.348Z,100825.48
2018-09-12T06:58:43.381Z,100820.60
2018-09-12T07:01:12.354Z,100814.84
2018-09-12T07:03:41.372Z,100820.63
2018-09-12T07:06:10.309Z,100819.19
2018-09-12T07:08:39.356Z,100811.00
2018-09-12T07:11:08.340Z,100807.23
2018-09-12T07:13:37.388Z,100812.84
2018-09-12T07:16:06.369Z,100810.26
2018-09-12T07:18:35.418Z,100812.09
2018-09-12T07:21:04.362Z,100808.45
2018-09-12T07:23:33.420Z,100819.67
2018-09-12T07:26:02.382Z,100815.98
2018-09-12T07:28:31.498Z,100821.02
2018-09-12T07:31:00.442Z,100818.39
2018-09-12T07:33:29.457Z,100814.66
2018-09-12T07:35:58.481Z,100822.52
2018-09-12T07:38:27.567Z,100820.20
2018-09-12T07:40:56.517Z,100825.92
2018-09-12T07:43:25.576Z,100826.84
2018-09-12T07:45:54.613Z,100829.80
2018-09-12T07:48:23.610Z,100824.55
2018-09-12T07:50:52.576Z,100818.39
2018-09-12T07:53:21.554Z,100817.48
2018-09-12T07:55:50.516Z,100817.63
2018-09-12T07:58:19.547Z,100822.13
2018-09-12T08:00:48.618Z,100824.78
2018-09-12T08:03:17.594Z,100816.72
2018-09-12T08:05:46.593Z,100822.16
2018-09-12T08:08:15.647Z,100816.56
2018-09-12T08:10:44.565Z,100813.36
2018-09-12T08:13:13.570Z,100816.41
2018-09-12T08:15:42.509Z,100815.20
2018-09-12T08:18:11.446Z,100819.05
2018-09-12T08:20:40.370Z,100819.67
2018-09-12T08:23:09.398Z,100812.13
2018-09-12T08:25:38.369Z,100805.75
2018-09-12T08:28:07.416Z,100806.58
2018-09-12T08:30:36.441Z,100804.07
2018-09-12T08:33:05.558Z,100800.95
2018-09-12T08:35:34.733Z,100798.85
2018-09-12T08:38:04.094Z,100799.06
2018-09-12T08:40:33.101Z,100800.56
2018-09-12T08:43:02.032Z,100807.41
2018-09-12T08:45:30.965Z,100806.64
2018-09-12T08:48:00.126Z,100800.05
2018-09-12T08:50:29.000Z,100803.19
2018-09-12T08:52:58.018Z,100806.33
2018-09-12T08:55:27.058Z,100802.75
2018-09-12T08:57:56.174Z,100805.78
2018-09-12T09:00:30.845Z,100803.88
2018-09-12T09:02:59.870Z,100790.89
2018-09-12T09:05:28.821Z,100791.66
2018-09-12T09:07:57.919Z,100790.63
2018-09-12T09:10:27.461Z,100785.39
2018-09-12T09:12:57.528Z,100785.66
2018-09-12T09:15:27.309Z,100792.77
2018-09-12T09:17:56.633Z,100790.17
2018-09-12T09:20:26.026Z,100793.75
2018-09-12T09:22:55.193Z,100787.93
2018-09-12T09:25:24.211Z,100790.86
2018-09-12T09:27:53.177Z,100795.28
2018-09-12T09:30:22.372Z,100794.19
2018-09-12T09:32:51.357Z,100792.31
2018-09-12T09:35:20.339Z,100787.50
2018-09-12T09:37:49.249Z,100795.41
2018-09-12T09:40:18.224Z,100786.85
2018-09-12T09:42:47.222Z,100779.78
2018-09-12T09:45:16.262Z,100782.73
2018-09-12T09:47:45.287Z,100779.73
2018-09-12T09:50:14.321Z,100777.32
2018-09-12T09:52:43.260Z,100781.42
2018-09-12T09:55:12.353Z,100779.99
2018-09-12T09:57:41.322Z,100780.94
2018-09-12T10:00:16.183Z,100772.78
2018-09-12T10:02:50.445Z,100768.64
2018-09-12T10:05:24.737Z,100768.27
2018-09-12T10:07:59.037Z,100771.23
2018-09-12T10:10:28.076Z,100768.50
2018-09-12T10:12:57.098Z,100765.63
2018-09-12T10:15:26.103Z,100766.06
2018-09-12T10:17:55.146Z,100759.50
2018-09-12T10:20:24.227Z,100762.86
2018-09-12T10:22:53.227Z,100761.12
2018-09-12T10:25:22.234Z,100758.50
2018-09-12T10:27:51.195Z,100762.79
2018-09-12T10:30:20.328Z,100757.28
2018-09-12T10:32:49.296Z,100750.86
2018-09-12T10:35:18.297Z,100749.19
2018-09-12T10:37:47.197Z,100743.89
2018-09-12T10:40:16.505Z,100734.78
2018-09-12T10:42:45.655Z,100736.46
2018-09-12T10:45:14.710Z,100737.77
2018-09-12T10:47:43.694Z,100731.05
2018-09-12T10:50:12.898Z,100728.25
2018-09-12T10:52:41.890Z,100737.96
2018-09-12T10:55:10.862Z,100731.47
2018-09-12T10:57:39.855Z,100727.29
2018-09-12T11:00:09.306Z,100720.11
2018-09-12T11:02:38.337Z,100725.19
2018-09-12T11:05:07.451Z,100719.91
2018-09-12T11:07:36.482Z,100716.69
2018-09-12T11:10:05.526Z,100715.87
2018-09-12T11:12:34.449Z,100714.59
2018-09-12T11:15:03.627Z,100700.33
2018-09-12T11:17:32.590Z,100700.42
2018-09-12T11:20:01.626Z,100697.16
2018-09-12T11:22:30.561Z,100689.07
2018-09-12T11:24:59.617Z,100691.83
2018-09-12T11:27:28.570Z,100693.61
2018-09-12T11:29:57.550Z,100680.84
2018-09-12T11:32:26.531Z,100684.38
2018-09-12T11:34:55.590Z,100683.79
2018-09-12T11:37:24.563Z,100681.20
2018-09-12T11:39:53.630Z,100671.45
2018-09-12T11:42:22.585Z,100671.45
2018-09-12T11:44:51.611Z,100664.59
2018-09-12T11:47:20.616Z,100658.08
2018-09-12T11:49:49.681Z,100660.22
2018-09-12T11:52:18.688Z,100660.42
2018-09-12T11:54:48.104Z,100654.59
2018-09-12T11:57:17.474Z,100654.08
2018-09-12T11:59:46.504Z,100652.42
2018-09-12T12:02:15.575Z,100648.70
2018-09-12T12:04:44.474Z,100648.06
2018-09-12T12:07:13.489Z,100639.32
2018-09-12T12:09:42.571Z,100636.72
2018-09-12T12:12:11.762Z,100629.03
2018-09-12T12:14:40.719Z,100631.30
2018-09-12T12:17:09.669Z,100631.89
2018-09-12T12:19:38.641Z,100639.34
2018-09-12T12:22:07.701Z,100623.55
2018-09-12T12:24:36.706Z,100623.25
2018-09-12T12:27:06.007Z,100603.07
2018-09-12T12:29:35.172Z,100610.25
2018-09-12T12:32:04.266Z,100615.81
2018-09-12T12:34:33.259Z,100610.05
2018-09-12T12:37:02.301Z,100605.71
2018-09-12T12:39:31.322Z,100608.75
2018-09-12T12:42:00.320Z,100605.09
2018-09-12T12:44:29.311Z,100584.58
2018-09-12T12:46:58.456Z,100599.66
2018-09-12T12:49:27.434Z,100602.92
2018-09-12T12:51:56.555Z,100589.53
2018-09-12T12:54:25.597Z,100596.13
2018-09-12T12:56:54.665Z,100595.47
2018-09-12T12:59:23.686Z,100595.31
2018-09-12T13:01:52.858Z,100589.92
2018-09-12T13:04:21.983Z,100581.97
2018-09-12T13:06:51.113Z,100590.83
2018-09-12T13:09:20.023Z,100577.45
2018-09-12T13:11:49.050Z,100577.69
2018-09-12T13:14:17.989Z,100576.13
2018-09-12T13:16:47.013Z,100578.38
2018-09-12T13:19:16.052Z,100559.73
2018-09-12T13:21:45.108Z,100570.25
2018-09-12T13:24:14.179Z,100567.11
2018-09-12T13:26:43.122Z,100570.41
2018-09-12T13:29:12.091Z,100571.19
2018-09-12T13:31:41.133Z,100566.00
2018-09-12T13:34:10.314Z,100573.96
2018-09-12T13:36:39.349Z,100563.27
2018-09-12T13:39:15.293Z,100562.98
2018-09-12T13:41:44.338Z,100558.28
2018-09-12T13:44:13.342Z,100555.97
2018-09-12T13:46:42.334Z,100552.19
2018-09-12T13:49:11.262Z,100555.56
2018-09-12T13:51:40.266Z,100558.67
2018-09-12T13:54:09.219Z,100546.47
2018-09-12T13:56:38.287Z,100553.28
2018-09-12T13:59:07.309Z,100554.39
2018-09-12T14:01:36.405Z,100557.92
2018-09-12T14:04:05.354Z,100553.88
2018-09-12T14:06:34.345Z,100548.05
2018-09-12T14:09:03.473Z,100540.27
2018-09-12T14:11:32.462Z,100546.56
2018-09-12T14:14:01.571Z,100543.13
2018-09-12T14:16:30.581Z,100539.97
2018-09-12T14:18:59.567Z,100542.48
2018-09-12T14:21:28.560Z,100541.45
2018-09-12T14:23:57.671Z,100546.13
2018-09-12T14:26:26.714Z,100544.21
2018-09-12T14:28:55.824Z,100540.78
2018-09-12T14:31:24.842Z,100545.87
2018-09-12T14:33:53.910Z,100536.41
2018-09-12T14:36:22.864Z,100534.22
2018-09-12T14:38:51.955Z,100543.27
2018-09-12T14:41:20.917Z,100537.84
2018-09-12T14:43:49.921Z,100530.25
2018-09-12T14:46:18.830Z,100527.20
2018-09-12T14:48:47.883Z,100526.14
2018-09-12T14:51:16.897Z,100531.54
2018-09-12T14:53:45.869Z,100524.36
2018-09-12T14:56:14.864Z,100525.45
2018-09-12T14:58:43.854Z,100520.61
2018-09-12T15:01:12.846Z,100527.00
2018-09-12T15:03:41.756Z,100518.23
2018-09-12T15:06:10.743Z,100523.31
2018-09-12T15:08:39.851Z,100520.06
2018-09-12T15:11:08.781Z,100510.87
2018-09-12T15:13:37.835Z,100505.16
2018-09-12T15:16:06.801Z,100498.55
2018-09-12T15:18:35.866Z,100497.85
2018-09-12T15:21:04.809Z,100493.48
2018-09-12T15:23:33.917Z,100494.31
2018-09-12T15:26:02.873Z,100498.48
2018-09-12T15:28:32.067Z,100505.64
2018-09-12T15:31:01.086Z,100502.89
2018-09-12T15:33:30.161Z,100512.00
2018-09-12T15:35:59.133Z,100503.73
2018-09-12T15:38:28.093Z,100495.66
2018-09-12T15:40:57.102Z,100496.49
2018-09-12T15:43:26.035Z,100488.98
2018-09-12T15:45:54.927Z,100489.77
2018-09-12T15:48:23.930Z,100499.55
2018-09-12T15:50:52.814Z,100495.67
2018-09-12T15:53:21.891Z,100494.91
2018-09-12T15:55:50.898Z,100498.75
2018-09-12T15:58:19.940Z,100499.59
2018-09-12T16:00:48.810Z,100491.47
2018-09-12T16:03:17.806Z,100499.59
2018-09-12T16:05:46.852Z,100492.95
2018-09-12T16:08:15.853Z,100485.41
2018-09-12T16:10:44.802Z,100485.55
2018-09-12T16:13:13.911Z,100481.72
2018-09-12T16:15:42.905Z,100478.63
2018-09-12T16:18:11.917Z,100484.94
2018-09-12T16:20:40.906Z,100475.64
2018-09-12T16:23:09.921Z,100465.88
2018-09-12T16:25:38.917Z,100468.31
2018-09-12T16:28:07.870Z,100464.40
2018-09-12T16:30:36.864Z,100460.84
2018-09-12T16:33:05.963Z,100463.66
2018-09-12T16:35:34.925Z,100457.86
2018-09-12T16:38:03.885Z,100452.65
2018-09-12T16:40:32.865Z,100455.19
2018-09-12T16:43:01.927Z,100449.70
2018-09-12T16:45:30.913Z,100445.77
2018-09-12T16:47:59.954Z,100445.45
2018-09-12T16:50:28.921Z,100448.53
2018-09-12T16:52:57.929Z,100443.05
2018-09-12T16:55:26.936Z,100443.85
2018-09-12T16:57:55.981Z,100451.33
2018-09-12T17:00:25.001Z,100447.17
2018-09-12T17:02:54.279Z,100445.61
2018-09-12T17:05:23.236Z,100442.21
2018-09-12T17:07:52.217Z,100448.55
2018-09-12T17:10:21.208Z,100447.33
2018-09-12T17:12:50.181Z,100439.77
2018-09-12T17:15:19.237Z,100438.58
2018-09-12T17:17:48.289Z,100438.93
2018-09-12T17:20:17.732Z,100431.42
2018-09-12T17:22:46.742Z,100437.69
2018-09-12T17:25:15.669Z,100438.72
2018-09-12T17:27:44.690Z,100436.43
2018-09-12T17:30:13.690Z,100436.41
2018-09-12T17:32:42.638Z,100437.84
2018-09-12T17:35:11.658Z,100446.23
2018-09-12T17:37:40.592Z,100446.49
2018-09-12T17:40:09.594Z,100453.31
2018-09-12T17:42:38.490Z,100441.58
2018-09-12T17:45:08.266Z,100444.84
2018-09-12T17:47:37.504Z,100448.19
2018-09-12T17:50:06.569Z,100449.69
2018-09-12T17:52:35.466Z,100451.95
2018-09-12T17:55:04.500Z,100450.94
2018-09-12T17:57:33.379Z,100450.51
2018-09-12T18:00:02.373Z,100456.45
2018-09-12T18:02:31.331Z,100461.43
2018-09-12T18:05:00.310Z,100471.56
2018-09-12T18:07:29.224Z,100471.24
2018-09-12T18:09:58.343Z,100463.58
2018-09-12T18:12:27.294Z,100469.60
2018-09-12T18:14:56.237Z,100476.81
2018-09-12T18:17:25.187Z,100479.12
2018-09-12T18:19:54.154Z,100483.09
2018-09-12T18:22:23.193Z,100492.98
2018-09-12T18:24:52.336Z,100493.58
2018-09-12T18:27:21.365Z,100496.07
2018-09-12T18:29:50.467Z,100500.95
2018-09-12T18:32:19.417Z,100507.53
2018-09-12T18:34:48.445Z,100508.68
2018-09-12T18:37:17.474Z,100507.14
2018-09-12T18:39:46.416Z,100514.03
2018-09-12T18:42:15.365Z,100513.30
2018-09-12T18:44:44.337Z,100511.30
2018-09-12T18:47:13.226Z,100513.55
2018-09-12T18:49:42.223Z,100518.66
2018-09-12T18:52:11.212Z,100518.80
2018-09-12T18:54:40.247Z,100518.27
2018-09-12T18:57:09.155Z,100524.87
2018-09-12T18:59:38.231Z,100520.23
2018-09-12T19:02:07.273Z,100526.78
2018-09-12T19:04:36.328Z,100531.65
2018-09-12T19:07:05.380Z,100536.63
2018-09-12T19:09:34.350Z,100540.13
2018-09-12T19:12:03.291Z,100541.28
2018-09-12T19:14:32.226Z,100544.88
2018-09-12T19:17:01.214Z,100550.88
2018-09-12T19:19:30.170Z,100551.47
2018-09-12T19:21:59.173Z,100559.16
2018-09-12T19:24:28.158Z,100556.35
2018-09-12T19:26:57.201Z,100567.42
2018-09-12T19:29:26.162Z,100565.23
2018-09-12T19:31:55.053Z,100564.11
2018-09-12T19:34:24.012Z,100563.63
2018-09-12T19:36:53.231Z,100559.05
2018-09-12T19:39:22.258Z,100567.79
2018-09-12T19:41:51.217Z,100573.41
2018-09-12T19:44:20.278Z,100568.77
2018-09-12T19:46:49.225Z,100569.52
2018-09-12T19:49:18.194Z,100574.28
2018-09-12T19:51:47.170Z,100580.42
2018-09-12T19:54:16.196Z,100580.12
2018-09-12T19:56:45.142Z,100590.17
2018-09-12T19:59:14.231Z,100584.55
2018-09-12T20:01:43.150Z,100590.80
2018-09-12T20:04:12.189Z,100582.73
2018-09-12T20:06:41.172Z,100586.05
2018-09-12T20:09:11.615Z,100592.92
2018-09-12T20:11:41.037Z,100593.16
2018-09-12T20:14:10.103Z,100594.06
2018-09-12T20:16:39.010Z,100587.04
2018-09-12T20:19:08.110Z,100581.11
2018-09-12T20:21:37.133Z,100588.53
2018-09-12T20:24:06.161Z,100594.88
2018-09-12T20:26:35.206Z,100585.68
2018-09-12T20:29:04.133Z,100587.69
2018-09-12T20:31:33.080Z,100587.65
2018-09-12T20:34:02.010Z,100598.54
2018-09-12T20:36:31.089Z,100598.30
2018-09-12T20:39:00.168Z,100600.85
2018-09-12T20:41:29.209Z,100590.16
2018-09-12T20:43:58.159Z,100592.00
2018-09-12T20:46:27.095Z,100593.29
2018-09-12T20:48:56.164Z,100598.62
2018-09-12T20:51:25.149Z,100596.84
2018-09-12T20:53:54.217Z,100597.01
2018-09-12T20:56:23.227Z,100608.65
2018-09-12T20:58:52.158Z,100590.94
2018-09-12T21:01:21.167Z,100605.82
2018-09-12T21:03:50.066Z,100607.05
2018-09-12T21:06:19.057Z,100596.04
2018-09-12T21:08:48.045Z,100605.12
2018-09-12T21:11:17.082Z,100608.16
2018-09-12T21:13:46.096Z,100596.97
2018-09-12T21:16:15.122Z,100594.51
2018-09-12T21:18:44.082Z,100603.67
2018-09-12T21:21:13.106Z,100603.03
2018-09-12T21:23:42.125Z,100600.36
2018-09-12T21:26:11.143Z,100604.41
2018-09-12T21:28:40.201Z,100606.29
2018-09-12T21:31:09.184Z,100609.87
2018-09-12T21:33:38.147Z,100619.63
2018-09-12T21:36:07.235Z,100613.06
2018-09-12T21:38:36.174Z,100633.23
2018-09-12T21:41:05.327Z,100629.70
2018-09-12T21:43:34.225Z,100615.03
2018-09-12T21:46:03.291Z,100627.06
2018-09-12T21:48:32.209Z,100626.24
2018-09-12T21:51:01.154Z,100623.92
2018-09-12T21:53:30.097Z,100621.86
2018-09-12T21:55:59.067Z,100635.19
2018-09-12T21:58:27.981Z,100634.13
2018-09-12T22:00:57.104Z,100621.49
2018-09-12T22:03:26.164Z,100617.16
2018-09-12T22:05:55.191Z,100613.87
2018-09-12T22:08:24.210Z,100608.58
2018-09-12T22:10:53.185Z,100614.95
2018-09-12T22:13:22.167Z,100614.56
2018-09-12T22:15:51.241Z,100615.45
2018-09-12T22:18:20.280Z,100614.75
2018-09-12T22:20:49.349Z,100617.27
2018-09-12T22:23:18.325Z,100620.25
2018-09-12T22:25:47.308Z,100627.21
2018-09-12T22:28:16.265Z,100633.30
2018-09-12T22:30:45.579Z,100637.77
2018-09-12T22:33:14.533Z,100638.00
2018-09-12T22:35:43.590Z,100635.69
2018-09-12T22:38:12.494Z,100652.31
2018-09-12T22:40:41.495Z,100650.98
2018-09-12T22:43:10.493Z,100654.53
2018-09-12T22:45:39.598Z,100661.20
2018-09-12T22:48:08.574Z,100656.14
2018-09-12T22:50:37.564Z,100663.25
2018-09-12T22:53:06.584Z,100662.50
2018-09-12T22:55:35.559Z,100668.44
2018-09-12T22:58:04.571Z,100670.20
2018-09-12T23:00:33.614Z,100661.30
2018-09-12T23:03:02.571Z,100662.20
2018-09-12T23:05:31.542Z,100663.56
2018-09-12T23:08:00.483Z,100666.14
2018-09-12T23:10:29.494Z,100669.98
2018-09-12T23:12:58.406Z,100670.00
2018-09-12T23:15:27.489Z,100675.39
2018-09-12T23:17:56.415Z,100673.55
2018-09-12T23:20:25.444Z,100665.89
2018-09-12T23:22:54.434Z,100660.05
2018-09-12T23:25:23.409Z,100653.10
2018-09-12T23:27:52.447Z,100656.12
2018-09-12T23:30:21.390Z,100643.29
2018-09-12T23:32:50.446Z,100644.36
2018-09-12T23:35:19.493Z,100645.29
2018-09-12T23:37:48.480Z,100641.97
2018-09-12T23:40:17.393Z,100636.37
2018-09-12T23:42:46.317Z,100629.42
2018-09-12T23:45:15.363Z,100633.23
2018-09-12T23:47:44.286Z,100632.34
2018-09-12T23:50:13.258Z,100641.98
2018-09-12T23:52:42.257Z,100641.08
2018-09-12T23:55:11.241Z,100645.34
2018-09-12T23:57:40.234Z,100645.92
